Time;durP1;ratioP1;P1;durP2;ratioP2;P2;SDS_P1;SDS_P2;PMS_P1;PMS_P2;Temp;Humidity;BMP_temperature;BMP_pressure;BME280_temperature;BME280_humidity;BME280_pressure;Samples;Min_cycle;Max_cycle;Signal;HPM_P1;HPM_P2
2021/04/20 00:00:22;;;;;;;18.60;12.25;;;;;;;8.78;75.82;99598.23;1716532;83;21303;-81
2021/04/20 00:03:26;;;;;;;21.12;13.35;;;;;;;8.77;75.71;99594.34;1732300;83;21946;-81
2021/04/20 00:06:31;;;;;;;20.65;12.70;;;;;;;8.75;75.62;99599.11;1763898;80;21265;-81
2021/04/20 00:09:37;;;;;;;20.10;12.88;;;;;;;8.70;75.59;99592.34;1764947;80;21314;-81
2021/04/20 00:12:42;;;;;;;17.85;12.13;;;;;;;8.68;75.63;99582.13;1784861;80;21812;-80
2021/04/20 00:15:48;;;;;;;19.73;12.98;;;;;;;8.65;75.69;99564.75;1785028;80;21286;-81
2021/04/20 00:18:54;;;;;;;20.37;14.03;;;;;;;8.60;75.75;99542.64;1765183;80;21295;-81
2021/04/20 00:21:59;;;;;;;17.20;11.93;;;;;;;8.56;75.84;99547.28;1785003;80;21776;-81
2021/04/20 00:25:04;;;;;;;23.87;13.75;;;;;;;8.53;75.90;99534.88;1765000;80;21922;-81
2021/04/20 00:28:11;;;;;;;23.18;13.03;;;;;;;8.49;75.92;99503.56;1785059;80;21286;-81
2021/04/20 00:31:17;;;;;;;14.73;9.90;;;;;;;8.46;76.03;99517.55;1784912;80;21218;-81
2021/04/20 00:34:26;;;;;;;21.55;13.78;;;;;;;8.42;76.10;99525.26;1726813;83;21172;-81
2021/04/20 00:37:32;;;;;;;24.63;12.33;;;;;;;8.38;76.12;99532.61;1785049;80;21918;-81
2021/04/20 00:40:38;;;;;;;14.73;11.08;;;;;;;8.37;76.18;99519.47;1785096;80;21337;-81
2021/04/20 00:43:48;;;;;;;19.82;11.80;;;;;;;8.34;76.18;99500.75;1784995;80;21303;-81
2021/04/20 00:46:54;;;;;;;18.98;12.43;;;;;;;8.32;76.22;99491.05;1763580;80;21860;-81
2021/04/20 00:50:01;;;;;;;25.05;13.75;;;;;;;8.28;76.37;99496.04;1784821;80;21266;-81
2021/04/20 00:53:08;;;;;;;20.43;12.73;;;;;;;8.25;76.49;99477.84;1784926;80;21215;-81
2021/04/20 00:56:18;;;;;;;17.90;11.90;;;;;;;8.23;76.58;99473.91;1785027;80;21266;-81
2021/04/20 00:59:23;;;;;;;16.97;11.35;;;;;;;8.22;76.65;99464.05;1784696;80;21357;-81
2021/04/20 01:02:29;;;;;;;17.55;10.78;;;;;;;8.18;76.73;99451.81;1784912;80;21163;-81
2021/04/20 01:05:42;;;;;;;19.92;13.15;;;;;;;8.16;76.87;99464.78;1785056;80;21266;-81
2021/04/20 01:08:47;;;;;;;23.55;12.93;;;;;;;8.14;77.01;99476.39;1763434;80;21349;-80
2021/04/20 01:11:54;;;;;;;21.57;13.30;;;;;;;8.11;77.07;99483.55;1785027;80;21175;-81
2021/04/20 01:15:00;;;;;;;17.15;11.38;;;;;;;8.10;77.16;99481.86;1785134;80;21139;-81
2021/04/20 01:18:16;;;;;;;17.02;12.20;;;;;;;8.08;77.26;99483.37;1784983;80;21301;-81
2021/04/20 01:21:21;;;;;;;18.15;12.58;;;;;;;8.07;77.36;99482.21;1784986;80;21326;-81
2021/04/20 01:24:33;;;;;;;17.75;11.93;;;;;;;8.07;77.44;99474.04;1760200;80;21844;-81
2021/04/20 01:27:39;;;;;;;18.85;12.53;;;;;;;8.07;77.45;99467.23;1784988;80;21310;-81
2021/04/20 01:30:46;;;;;;;18.82;12.15;;;;;;;8.05;77.49;99465.21;1765159;80;21206;-81
2021/04/20 01:33:51;;;;;;;18.05;11.55;;;;;;;8.05;77.51;99457.89;1764834;80;21859;-81
2021/04/20 01:36:57;;;;;;;25.17;12.05;;;;;;;8.04;77.60;99451.23;1746025;80;21203;-81
2021/04/20 01:40:04;;;;;;;16.17;11.73;;;;;;;8.02;77.70;99446.50;1738000;80;21265;-81
2021/04/20 01:43:14;;;;;;;16.17;11.10;;;;;;;7.99;77.96;99438.16;1784958;80;21947;-81
2021/04/20 01:46:17;;;;;;;21.10;13.45;;;;;;;7.95;78.13;99427.30;1784958;80;21789;-81
2021/04/20 01:49:24;;;;;;;14.87;11.68;;;;;;;7.93;78.31;99426.12;1765020;80;21274;-81
2021/04/20 01:52:29;;;;;;;20.37;12.03;;;;;;;7.93;78.42;99434.81;1764493;80;21179;-81
2021/04/20 01:55:35;;;;;;;22.82;12.65;;;;;;;7.92;78.52;99425.80;1785044;80;21271;-80
2021/04/20 01:58:41;;;;;;;19.80;11.85;;;;;;;7.92;78.65;99408.09;1763271;80;21843;-81
2021/04/20 02:01:47;;;;;;;17.95;12.07;;;;;;;7.93;78.81;99404.86;1779972;80;21669;-80
2021/04/20 02:04:53;;;;;;;18.52;11.88;;;;;;;7.91;78.89;99402.33;1779687;80;21160;-81
2021/04/20 02:07:58;;;;;;;18.48;12.20;;;;;;;7.93;78.94;99396.17;1759932;80;21298;-81
2021/04/20 02:11:05;;;;;;;16.85;12.40;;;;;;;7.93;79.02;99382.55;1759981;80;21223;-81
2021/04/20 02:14:10;;;;;;;21.62;12.10;;;;;;;7.94;79.03;99364.34;1779721;80;21341;-81
2021/04/20 02:17:15;;;;;;;17.60;12.68;;;;;;;7.95;79.11;99361.94;1759549;80;21863;-80
2021/04/20 02:20:22;;;;;;;16.70;12.60;;;;;;;7.95;79.14;99372.83;1779655;80;21267;-81
2021/04/20 02:23:28;;;;;;;16.93;11.38;;;;;;;7.96;79.17;99379.16;1778698;80;21167;-81
2021/04/20 02:26:38;;;;;;;21.45;12.43;;;;;;;7.98;79.17;99370.27;1779589;80;22197;-81
2021/04/20 02:29:44;;;;;;;23.73;13.90;;;;;;;8.00;79.16;99367.72;1779952;80;21805;-81
2021/04/20 02:32:51;;;;;;;17.15;12.20;;;;;;;8.03;79.05;99366.48;1754592;80;21777;-81
2021/04/20 02:35:57;;;;;;;19.20;12.85;;;;;;;8.04;79.00;99367.66;1760084;80;21254;-81
2021/04/20 02:39:02;;;;;;;17.45;12.53;;;;;;;8.08;78.92;99366.78;1755104;80;21321;-81
2021/04/20 02:42:07;;;;;;;23.73;12.93;;;;;;;8.11;78.82;99356.89;1779597;80;21315;-81
2021/04/20 02:45:14;;;;;;;21.52;13.55;;;;;;;8.10;78.80;99370.19;1779780;80;21156;-81
2021/04/20 02:48:21;;;;;;;20.50;12.47;;;;;;;8.09;78.82;99369.34;1758189;80;21298;-80
2021/04/20 02:51:26;;;;;;;19.77;12.93;;;;;;;8.10;78.81;99357.93;1779538;80;21259;-81
2021/04/20 02:54:32;;;;;;;16.97;11.83;;;;;;;8.13;78.78;99350.73;1779767;80;21907;-81
2021/04/20 02:57:39;;;;;;;19.82;11.43;;;;;;;8.14;78.67;99349.20;1759595;80;21239;-81
2021/04/20 03:00:45;;;;;;;17.42;12.50;;;;;;;8.15;78.75;99340.52;1758261;80;21321;-81
2021/04/20 03:03:55;;;;;;;17.42;12.20;;;;;;;8.14;78.81;99325.21;1778183;80;21187;-81
2021/04/20 03:07:00;;;;;;;18.90;12.20;;;;;;;8.14;78.77;99319.25;1779700;80;21195;-81
2021/04/20 03:10:05;;;;;;;17.92;11.68;;;;;;;8.15;78.89;99326.90;1779603;80;21274;-81
2021/04/20 03:13:12;;;;;;;21.42;11.57;;;;;;;8.15;78.98;99324.17;1729151;80;21191;-81
2021/04/20 03:16:20;;;;;;;17.27;12.45;;;;;;;8.16;78.97;99328.06;1779758;80;21553;-81
2021/04/20 03:19:27;;;;;;;19.62;12.68;;;;;;;8.19;78.91;99330.95;1779728;80;21159;-81
2021/04/20 03:22:33;;;;;;;19.98;11.50;;;;;;;8.19;78.86;99327.70;1760323;80;21282;-81
2021/04/20 03:25:40;;;;;;;16.37;10.55;;;;;;;8.22;78.87;99325.11;1759882;80;21271;-81
2021/04/20 03:28:45;;;;;;;18.00;11.22;;;;;;;8.25;78.74;99324.75;1779874;80;21310;-81
2021/04/20 03:31:50;;;;;;;17.37;11.93;;;;;;;8.27;78.80;99318.59;1779817;80;21326;-81
2021/04/20 03:35:01;;;;;;;18.75;13.10;;;;;;;8.29;78.88;99323.88;1779624;80;21163;-81
2021/04/20 03:38:21;;;;;;;15.60;11.25;;;;;;;8.30;78.82;99313.30;1737294;80;21833;-81
2021/04/20 03:41:45;;;;;;;16.90;10.93;;;;;;;8.33;78.82;99310.21;1779908;80;21262;-81
2021/04/20 03:44:56;;;;;;;15.35;10.45;;;;;;;8.36;78.79;99312.55;1779800;80;21195;-81
2021/04/20 03:48:22;;;;;;;;;;;;;;;8.37;78.76;99298.75;1742395;80;21172;-81
2021/04/20 03:51:32;;;;;;;23.27;12.80;;;;;;;8.40;78.81;99291.58;1760542;80;20257;-81
2021/04/20 03:54:38;;;;;;;18.32;11.90;;;;;;;8.41;78.77;99294.63;1779800;80;21787;-81
2021/04/20 03:57:43;;;;;;;16.05;12.23;;;;;;;8.41;78.73;99278.80;1779747;80;21198;-81
2021/04/20 04:00:49;;;;;;;20.05;11.75;;;;;;;8.39;78.80;99277.63;1741007;80;21211;-80
2021/04/20 04:03:54;;;;;;;20.02;12.80;;;;;;;8.41;78.82;99267.90;1754859;81;21140;-81
2021/04/20 04:07:01;;;;;;;19.92;12.98;;;;;;;8.41;78.81;99257.84;1774639;81;21140;-81
2021/04/20 04:10:08;;;;;;;18.65;12.25;;;;;;;8.43;78.86;99259.04;1774432;81;21270;-81
2021/04/20 04:13:14;;;;;;;17.75;11.38;;;;;;;8.41;78.84;99256.48;1774488;81;21327;-81
2021/04/20 04:16:21;;;;;;;16.25;11.43;;;;;;;8.43;78.85;99258.52;1774568;81;21305;-81
2021/04/20 04:19:27;;;;;;;17.05;11.93;;;;;;;8.47;78.68;99262.20;1774359;81;21313;-81
2021/04/20 04:22:36;;;;;;;18.40;12.68;;;;;;;8.50;78.53;99256.39;1774545;81;21611;-81
2021/04/20 04:25:44;;;;;;;19.40;13.08;;;;;;;8.54;78.46;99256.34;1774606;81;21203;-81
2021/04/20 04:28:55;;;;;;;30.40;11.43;;;;;;;8.54;78.41;99253.63;1753022;81;21872;-81
2021/04/20 04:32:01;;;;;;;17.52;12.40;;;;;;;8.53;78.55;99253.30;1774472;81;21271;-81
2021/04/20 04:35:06;;;;;;;19.52;12.45;;;;;;;8.53;78.70;99254.66;1773263;81;21286;-81
2021/04/20 04:38:12;;;;;;;18.00;12.88;;;;;;;8.53;78.80;99253.30;1754996;81;21282;-81
2021/04/20 04:41:18;;;;;;;16.10;12.13;;;;;;;8.52;78.88;99251.09;1754923;81;21307;-81
2021/04/20 04:44:24;;;;;;;18.05;12.55;;;;;;;8.53;78.89;99254.14;1754518;81;21278;-81
2021/04/20 04:47:29;;;;;;;16.27;11.55;;;;;;;8.54;78.92;99253.63;1774467;81;21369;-81
2021/04/20 04:50:34;;;;;;;19.92;12.95;;;;;;;8.53;78.95;99253.30;1754292;81;21338;-81
2021/04/20 04:53:41;;;;;;;23.02;12.37;;;;;;;8.54;79.12;99253.63;1774669;81;21781;-81
2021/04/20 04:56:48;;;;;;;17.17;13.48;;;;;;;8.54;79.21;99246.80;1774367;81;21263;-81
2021/04/20 04:59:54;;;;;;;24.60;14.05;;;;;;;8.55;79.35;99250.70;1774512;81;21808;-81
2021/04/20 05:02:59;;;;;;;23.12;13.58;;;;;;;8.55;79.72;99244.41;1754497;80;21286;-81
2021/04/20 05:06:06;;;;;;;23.40;13.90;;;;;;;8.53;80.25;99246.48;1706022;82;21369;-80
2021/04/20 05:09:16;;;;;;;22.82;14.58;;;;;;;8.54;80.62;99244.08;1720996;82;21493;-80
2021/04/20 05:12:27;;;;;;;18.95;14.40;;;;;;;8.57;80.82;99244.55;1696857;82;21136;-80
2021/04/20 05:15:33;;;;;;;24.72;16.07;;;;;;;8.58;81.06;99239.42;1668182;84;21276;-80
2021/04/20 05:18:39;;;;;;;18.98;14.73;;;;;;;8.62;81.18;99246.72;1694026;83;21203;-80
2021/04/20 05:22:18;;;;;;;25.30;14.80;;;;;;;8.68;81.62;99244.58;1866978;76;28153;-80
2021/04/20 05:25:26;;;;;;;26.00;15.05;;;;;;;8.67;81.93;99251.08;1797813;78;21177;-78
2021/04/20 05:28:31;;;;;;;22.50;15.83;;;;;;;8.64;82.71;99248.72;1775567;80;21144;-79
2021/04/20 05:31:36;;;;;;;27.02;15.35;;;;;;;8.58;83.10;99252.21;1752336;82;21685;-79
2021/04/20 05:34:42;;;;;;;22.67;16.17;;;;;;;8.51;83.68;99249.90;1775406;80;21248;-79
2021/04/20 05:37:49;;;;;;;22.80;17.02;;;;;;;8.49;84.33;99253.34;1732448;80;21616;-79
2021/04/20 05:40:55;;;;;;;25.48;17.30;;;;;;;8.47;84.83;99248.58;1726586;82;21866;-79
2021/04/20 05:44:01;;;;;;;22.58;15.78;;;;;;;8.52;85.46;99250.25;1728560;81;21323;-80
2021/04/20 05:47:06;;;;;;;22.35;16.85;;;;;;;8.55;85.84;99250.70;1735158;82;21858;-80
2021/04/20 05:50:13;;;;;;;26.25;20.37;;;;;;;8.55;86.22;99255.30;1729483;82;21204;-79
2021/04/20 05:53:20;;;;;;;26.35;17.65;;;;;;;8.55;86.65;99251.22;1739470;82;21823;-79
2021/04/20 05:56:27;;;;;;;34.30;19.90;;;;;;;8.58;86.87;99245.40;1724383;81;21854;-80
2021/04/20 05:59:34;;;;;;;28.27;20.10;;;;;;;8.59;86.93;99255.27;1728098;82;21299;-79
2021/04/20 06:02:41;;;;;;;27.00;18.40;;;;;;;8.63;87.21;99251.12;1750230;80;21830;-80
2021/04/20 06:05:49;;;;;;;26.07;17.30;;;;;;;8.67;87.49;99246.98;1739658;81;21332;-80
2021/04/20 06:08:56;;;;;;;28.47;18.90;;;;;;;8.74;87.67;99242.97;1739237;81;21290;-79
2021/04/20 06:12:01;;;;;;;29.60;20.90;;;;;;;8.77;87.59;99241.23;1743559;81;21321;-79
2021/04/20 06:15:08;;;;;;;29.18;20.77;;;;;;;8.75;87.65;99242.80;1739864;81;21195;-79
2021/04/20 06:18:15;;;;;;;30.70;21.10;;;;;;;8.74;87.87;99241.61;1746329;81;21287;-80
2021/04/20 06:21:23;;;;;;;31.80;20.65;;;;;;;8.74;88.11;99238.36;1734539;81;21409;-80
2021/04/20 06:24:33;;;;;;;26.37;19.12;;;;;;;8.81;88.46;99246.64;1731561;82;21854;-80
2021/04/20 06:27:38;;;;;;;32.75;22.15;;;;;;;8.84;88.46;99237.54;1733012;81;21768;-79
2021/04/20 06:30:43;;;;;;;32.78;23.27;;;;;;;8.88;88.55;99231.19;1729886;81;21319;-79
2021/04/20 06:33:49;;;;;;;32.65;23.18;;;;;;;8.89;88.69;99232.38;1749617;80;21717;-80
2021/04/20 06:36:55;;;;;;;32.38;22.25;;;;;;;8.86;88.74;99227.30;1738051;82;21172;-79
2021/04/20 06:40:00;;;;;;;33.85;21.12;;;;;;;8.82;89.00;99226.52;1719509;82;21336;-80
2021/04/20 06:43:12;;;;;;;31.85;21.50;;;;;;;8.80;89.52;99222.63;1718922;81;21228;-79
2021/04/20 06:46:24;;;;;;;32.42;20.32;;;;;;;8.85;89.76;99221.53;1734763;81;21308;-80
2021/04/20 06:49:40;;;;;;;34.30;21.97;;;;;;;8.90;90.07;99213.61;1709895;82;21870;-79
2021/04/20 06:52:58;;;;;;;33.28;21.02;;;;;;;8.96;90.36;99208.74;1730787;81;21788;-80
2021/04/20 06:56:21;;;;;;;35.50;23.75;;;;;;;9.02;90.39;99203.55;1734043;82;21354;-79
2021/04/20 06:59:51;;;;;;;28.57;20.62;;;;;;;9.02;90.50;99194.84;1734828;82;21299;-79
2021/04/20 07:03:19;;;;;;;31.57;20.75;;;;;;;9.02;90.77;99192.64;1730697;82;21839;-79
2021/04/20 07:06:32;;;;;;;33.23;21.70;;;;;;;9.05;91.38;99183.56;1740376;81;21233;-79
2021/04/20 07:09:41;;;;;;;25.43;16.93;;;;;;;9.09;91.65;99180.77;1729127;81;21311;-80
2021/04/20 07:12:46;;;;;;;29.40;21.30;;;;;;;9.12;91.96;99174.06;1729026;82;21809;-80
2021/04/20 07:16:03;;;;;;;30.35;22.10;;;;;;;9.14;92.12;99169.28;1721166;82;21247;-80
2021/04/20 07:19:36;;;;;;;32.42;20.90;;;;;;;9.14;92.32;99165.19;1721500;82;21288;-81
2021/04/20 07:23:36;;;;;;;32.60;20.08;;;;;;;9.14;92.58;99155.64;1730345;81;21303;-80
2021/04/20 07:27:12;;;;;;;27.00;18.85;;;;;;;9.14;92.88;99155.12;1729778;81;21314;-81
2021/04/20 07:30:47;;;;;;;30.17;21.10;;;;;;;9.16;93.22;99148.93;1730691;81;21326;-81
2021/04/20 07:34:18;;;;;;;30.85;21.77;;;;;;;9.20;93.47;99139.84;1746001;81;21372;-81
2021/04/20 07:37:52;;;;;;;33.28;20.88;;;;;;;9.28;93.69;99134.26;1776726;79;21874;-81
2021/04/20 07:41:24;;;;;;;30.68;20.00;;;;;;;9.41;94.16;99132.14;1781000;79;21347;-80
2021/04/20 07:44:49;;;;;;;26.30;18.40;;;;;;;9.51;94.13;99125.84;1780596;79;21165;-81
2021/04/20 07:47:59;;;;;;;31.57;20.82;;;;;;;9.59;93.84;99113.91;1778580;79;21303;-80
2021/04/20 07:51:08;;;;;;;29.77;20.00;;;;;;;9.65;93.70;99115.87;1777535;79;21173;-80
2021/04/20 07:54:41;;;;;;;33.25;23.45;;;;;;;9.76;93.80;99109.00;1712119;81;21232;-80
2021/04/20 07:57:56;;;;;;;28.52;20.02;;;;;;;9.81;93.71;99100.52;1770601;79;21153;-80
2021/04/20 08:01:31;;;;;;;34.15;22.48;;;;;;;9.90;93.67;99097.95;1777413;79;21185;-79
2021/04/20 08:04:56;;;;;;;33.35;22.73;;;;;;;9.95;93.08;99098.19;1780913;79;21292;-80
2021/04/20 08:08:08;;;;;;;37.48;22.95;;;;;;;9.98;92.73;99098.32;1779111;79;21292;-80
2021/04/20 08:11:38;;;;;;;37.60;23.18;;;;;;;10.02;92.85;99090.05;1778201;79;21354;-80
2021/04/20 08:15:20;;;;;;;37.58;24.15;;;;;;;10.02;92.77;99087.31;1777144;79;21346;-80
2021/04/20 08:18:37;;;;;;;37.00;22.42;;;;;;;10.06;92.82;99086.36;1779179;79;21237;-81
2021/04/20 08:21:43;;;;;;;34.03;24.10;;;;;;;10.04;92.88;99085.73;1782026;79;21315;-81
2021/04/20 08:25:01;;;;;;;36.40;24.52;;;;;;;10.03;92.96;99075.86;1738834;81;21642;-80
2021/04/20 08:28:35;;;;;;;35.13;23.98;;;;;;;10.02;93.22;99068.69;1739533;82;21364;-81
2021/04/20 08:31:55;;;;;;;41.05;25.48;;;;;;;10.07;93.88;99066.19;1737273;81;21189;-81
2021/04/20 08:35:31;;;;;;;41.40;25.52;;;;;;;10.14;93.81;99058.88;1737118;81;21306;-81
2021/04/20 08:38:58;;;;;;;34.60;23.10;;;;;;;10.17;93.74;99052.48;1716152;81;21389;-80
2021/04/20 08:42:15;;;;;;;42.10;24.80;;;;;;;10.17;93.66;99047.02;1716770;81;22018;-80
2021/04/20 08:45:48;;;;;;;39.38;25.95;;;;;;;10.12;93.47;99038.59;1756487;80;21326;-81
2021/04/20 08:49:06;;;;;;;39.67;24.95;;;;;;;10.09;93.77;99040.89;1739021;80;21865;-80
2021/04/20 08:52:20;;;;;;;36.25;25.17;;;;;;;10.07;94.42;99036.13;1735869;81;21358;-81
2021/04/20 08:56:13;;;;;;;46.23;28.70;;;;;;;10.04;94.97;99031.94;1735077;81;21303;-81
2021/04/20 08:59:42;;;;;;;35.98;24.57;;;;;;;9.97;95.23;99025.09;1758243;80;21298;-81
2021/04/20 09:03:22;;;;;;;31.20;22.52;;;;;;;9.91;95.82;99031.34;1754229;80;21264;-81
2021/04/20 09:06:40;;;;;;;39.60;24.12;;;;;;;9.88;96.42;99029.53;1753937;80;21854;-81
2021/04/20 09:09:47;;;;;;;39.05;26.02;;;;;;;9.82;96.77;99033.09;1736158;80;21197;-81
2021/04/20 09:12:54;;;;;;;44.70;28.00;;;;;;;9.70;97.18;99026.00;1741976;82;22365;-81
2021/04/20 09:16:13;;;;;;;40.67;27.65;;;;;;;9.67;97.85;99016.84;1740929;80;21303;-81
2021/04/20 09:19:34;;;;;;;43.15;29.02;;;;;;;9.67;98.58;98999.94;1734792;82;22577;-81
2021/04/20 09:23:02;;;;;;;40.58;25.08;;;;;;;9.69;99.10;98999.72;1735600;82;21339;-81
2021/04/20 09:26:32;;;;;;;44.15;29.15;;;;;;;9.68;99.60;98992.58;1726101;82;21307;-81
2021/04/20 09:29:46;;;;;;;43.17;27.67;;;;;;;9.68;100.00;98985.75;1776555;79;21288;-81
2021/04/20 09:32:59;;;;;;;43.48;27.65;;;;;;;9.69;100.00;98981.97;1776765;79;21336;-81
2021/04/20 09:36:04;;;;;;;44.30;27.98;;;;;;;9.71;100.00;98974.44;1781839;79;21889;-82
2021/04/20 09:39:05;;;;;;;37.13;24.92;;;;;;;9.73;100.00;98974.54;1777122;79;21295;-81
2021/04/20 09:41:59;;;;;;;34.25;23.62;;;;;;;9.76;100.00;98963.75;1778758;79;21276;-80
2021/04/20 09:45:25;;;;;;;33.50;23.83;;;;;;;9.81;100.00;98957.15;1781274;79;21256;-81
2021/04/20 09:48:56;;;;;;;36.68;26.05;;;;;;;9.87;100.00;98957.69;1780351;79;21831;-81
2021/04/20 09:52:04;;;;;;;36.93;23.95;;;;;;;9.91;100.00;98946.67;1780299;79;21267;-80
2021/04/20 09:55:14;;;;;;;37.42;26.80;;;;;;;9.96;100.00;98934.61;1780616;79;21314;-80
2021/04/20 09:58:20;;;;;;;37.73;22.62;;;;;;;10.04;100.00;98939.05;1782658;79;21622;-80
2021/04/20 10:01:43;;;;;;;31.23;22.75;;;;;;;10.08;100.00;98931.30;1783055;79;21299;-81
2021/04/20 10:05:05;;;;;;;33.02;21.95;;;;;;;10.11;100.00;98926.76;1781863;79;21350;-81
2021/04/20 10:08:23;;;;;;;36.42;24.18;;;;;;;10.14;100.00;98923.09;1776951;79;21133;-80
2021/04/20 10:11:49;;;;;;;35.00;24.80;;;;;;;10.17;100.00;98921.86;1779476;79;21149;-80
2021/04/20 10:15:22;;;;;;;35.28;25.45;;;;;;;10.18;100.00;98922.17;1781734;79;21850;-80
2021/04/20 10:18:33;;;;;;;34.95;25.90;;;;;;;10.21;100.00;98912.20;1784279;79;21197;-80
2021/04/20 10:22:12;;;;;;;39.25;24.35;;;;;;;10.22;100.00;98915.24;1779204;79;21314;-80
2021/04/20 10:25:55;;;;;;;39.58;27.37;;;;;;;10.23;100.00;98916.92;1774036;79;21326;-81
2021/04/20 10:29:06;;;;;;;34.00;26.15;;;;;;;10.25;100.00;98935.33;1787787;78;21291;-81
2021/04/20 10:32:20;;;;;;;30.20;22.58;;;;;;;10.29;100.00;98910.64;1790626;78;21177;-81
2021/04/20 10:35:38;;;;;;;37.08;27.15;;;;;;;10.41;100.00;98893.95;1834849;76;22204;-79
2021/04/20 10:38:43;;;;;;;33.30;25.25;;;;;;;10.39;100.00;98893.30;1777042;79;21183;-79
2021/04/20 10:41:51;;;;;;;38.67;26.75;;;;;;;10.39;100.00;98890.56;1774717;80;21200;-79
2021/04/20 10:44:56;;;;;;;33.28;24.25;;;;;;;10.40;100.00;98883.23;1732460;79;21323;-79
2021/04/20 10:48:03;;;;;;;42.38;24.75;;;;;;;10.42;100.00;98875.13;1729541;82;21946;-79
2021/04/20 10:51:09;;;;;;;33.70;26.00;;;;;;;10.44;100.00;98881.24;1724736;82;21255;-78
2021/04/20 10:54:16;;;;;;;39.60;25.80;;;;;;;10.46;100.00;98876.39;1738896;82;21281;-79
2021/04/20 10:57:23;;;;;;;37.65;27.17;;;;;;;10.46;100.00;98876.39;1727068;82;21308;-79
2021/04/20 11:00:29;;;;;;;40.35;28.45;;;;;;;10.45;100.00;98870.61;1735934;82;21821;-79
2021/04/20 11:03:41;;;;;;;42.70;29.63;;;;;;;10.45;99.93;98874.72;1738827;82;21608;-79
2021/04/20 11:07:30;;;;;;;39.75;29.00;;;;;;;10.46;99.99;98865.98;1734213;80;21717;-79
2021/04/20 11:10:34;;;;;;;43.68;32.53;;;;;;;10.48;99.86;98870.70;1738565;82;21823;-79
2021/04/20 11:13:47;;;;;;;51.75;33.02;;;;;;;10.42;99.16;98866.09;1739404;82;21208;-79
2021/04/20 11:16:54;;;;;;;45.63;31.50;;;;;;;10.38;99.07;98864.82;1734694;80;21338;-79
2021/04/20 11:20:11;;;;;;;45.33;30.27;;;;;;;10.34;99.21;98859.45;1731137;81;21213;-79
2021/04/20 11:23:19;;;;;;;47.25;30.50;;;;;;;10.30;99.45;98862.28;1738052;82;21760;-79
2021/04/20 11:26:24;;;;;;;43.23;26.23;;;;;;;10.22;99.41;98870.98;1727445;82;21279;-79
2021/04/20 11:29:36;;;;;;;43.85;30.20;;;;;;;10.16;99.41;98866.87;1730445;81;21292;-79
2021/04/20 11:32:44;;;;;;;46.92;32.05;;;;;;;10.09;99.41;98864.67;1727394;82;21283;-79
2021/04/20 11:35:52;;;;;;;46.48;31.17;;;;;;;10.07;99.88;98860.79;1734957;82;21164;-79
2021/04/20 11:39:00;;;;;;;42.78;29.00;;;;;;;10.06;100.00;98866.44;1736739;82;21191;-79
2021/04/20 11:42:13;;;;;;;41.80;26.87;;;;;;;9.99;100.00;98848.16;1740717;82;21829;-79
2021/04/20 11:45:27;;;;;;;45.03;29.42;;;;;;;9.94;100.00;98849.31;1733618;82;21277;-79
2021/04/20 11:48:43;;;;;;;46.75;30.65;;;;;;;9.92;100.00;98844.56;1738428;82;21263;-79
2021/04/20 11:51:48;;;;;;;46.50;32.98;;;;;;;9.92;100.00;98853.28;1737406;82;21264;-78
2021/04/20 11:54:53;;;;;;;52.75;35.80;;;;;;;9.92;100.00;98829.54;1741269;82;21746;-79
2021/04/20 11:57:59;;;;;;;49.55;36.38;;;;;;;9.92;100.00;98824.08;1740488;82;21157;-79
2021/04/20 12:01:08;;;;;;;47.58;32.75;;;;;;;9.94;100.00;98824.73;1739741;82;21276;-80
2021/04/20 12:04:16;;;;;;;43.70;30.37;;;;;;;9.97;100.00;98820.72;1743299;82;21303;-79
2021/04/20 12:07:23;;;;;;;48.28;33.45;;;;;;;9.98;100.00;98826.53;1730471;82;21212;-79
2021/04/20 12:10:31;;;;;;;1999.90;852.37;;;;;;;9.97;100.00;98822.95;1742222;82;21220;-79
2021/04/20 12:13:39;;;;;;;1999.90;925.62;;;;;;;9.99;100.00;98816.75;1737256;82;21259;-79
2021/04/20 12:16:44;;;;;;;1999.90;680.90;;;;;;;10.01;100.00;98821.16;1747975;82;21772;-79
2021/04/20 12:19:51;;;;;;;958.35;465.17;;;;;;;10.02;100.00;98810.53;1734863;80;21299;-79
2021/04/20 12:23:03;;;;;;;324.58;173.05;;;;;;;10.04;100.00;98809.82;1729151;82;21315;-79
2021/04/20 12:26:09;;;;;;;556.45;209.72;;;;;;;10.04;100.00;98801.09;1739820;82;21277;-79
2021/04/20 12:29:20;;;;;;;753.05;365.20;;;;;;;10.05;100.00;98793.73;1743708;82;21298;-79
2021/04/20 12:32:26;;;;;;;1284.05;597.27;;;;;;;10.05;100.00;98797.84;1738247;80;21327;-79
2021/04/20 12:35:36;;;;;;;1649.05;757.45;;;;;;;10.04;100.00;98800.26;1740763;82;21335;-79
2021/04/20 12:38:43;;;;;;;1946.37;889.10;;;;;;;10.01;100.00;98800.14;1730789;82;21247;-79
2021/04/20 12:41:48;;;;;;;1999.90;999.90;;;;;;;10.01;100.00;98793.31;1740497;82;21273;-79
2021/04/20 12:44:59;;;;;;;1999.90;999.90;;;;;;;9.97;100.00;98787.45;1733753;82;21245;-79
2021/04/20 12:48:04;;;;;;;1999.90;999.90;;;;;;;9.97;100.00;98784.72;1738942;80;21302;-79
2021/04/20 12:51:08;;;;;;;1999.90;999.90;;;;;;;9.97;100.00;98784.72;1740513;82;21916;-79
2021/04/20 12:54:16;;;;;;;1999.90;999.90;;;;;;;9.96;100.00;98783.53;1742584;82;21196;-79
2021/04/20 12:57:25;;;;;;;1999.90;999.90;;;;;;;9.92;100.00;98781.74;1737207;80;21273;-78
2021/04/20 13:00:35;;;;;;;1999.90;995.30;;;;;;;9.90;100.00;98779.76;1733832;82;21261;-79
2021/04/20 13:03:39;;;;;;;1999.90;907.75;;;;;;;9.88;100.00;98776.91;1742695;82;21276;-79
2021/04/20 13:06:54;;;;;;;1999.90;999.90;;;;;;;9.85;100.00;98782.81;1739626;82;21309;-79
2021/04/20 13:10:00;;;;;;;1999.90;946.10;;;;;;;9.81;100.00;98771.45;1746517;82;22238;-79
2021/04/20 13:13:09;;;;;;;1999.90;927.65;;;;;;;9.80;100.00;98772.52;1742956;82;21314;-79
2021/04/20 13:16:14;;;;;;;1999.90;767.17;;;;;;;9.80;100.00;98762.95;1741087;82;21284;-79
2021/04/20 13:19:21;;;;;;;1999.90;693.23;;;;;;;9.81;100.00;98770.09;1742026;82;21266;-79
2021/04/20 13:22:27;;;;;;;1999.90;999.90;;;;;;;9.81;100.00;98757.80;1703254;83;21320;-79
2021/04/20 13:25:33;;;;;;;1999.90;929.08;;;;;;;9.83;100.00;98765.77;1707454;83;21291;-79
2021/04/20 13:28:49;;;;;;;1999.90;862.90;;;;;;;9.83;100.00;98769.34;1740796;82;21382;-78
2021/04/20 13:31:56;;;;;;;1999.90;969.80;;;;;;;9.84;100.00;98766.95;1736047;82;21280;-79
2021/04/20 13:34:57;;;;;;;1999.90;999.90;;;;;;;9.83;100.00;98755.69;1735254;82;21145;-79
2021/04/20 13:38:05;;;;;;;1999.90;999.90;;;;;;;9.84;100.00;98761.48;1722970;82;21206;-79
2021/04/20 13:41:12;;;;;;;1999.90;999.90;;;;;;;9.84;100.00;98765.59;1690361;85;21308;-79
2021/04/20 13:44:18;;;;;;;1999.90;999.90;;;;;;;9.83;100.00;98762.52;1711218;83;21859;-79
2021/04/20 13:47:24;;;;;;;1999.90;999.90;;;;;;;9.81;100.00;98767.36;1712383;83;21304;-79
2021/04/20 13:50:46;;;;;;;1999.90;999.90;;;;;;;9.80;100.00;98762.11;1713206;83;21277;-79
2021/04/20 13:53:58;;;;;;;1999.90;999.90;;;;;;;9.77;100.00;98755.70;1734208;83;21866;-79
2021/04/20 13:57:06;;;;;;;1999.90;999.90;;;;;;;9.75;100.00;98762.74;1713024;83;21250;-79
2021/04/20 14:00:19;;;;;;;1999.90;997.38;;;;;;;9.73;100.00;98755.27;1734123;82;21280;-79
2021/04/20 14:03:30;;;;;;;1731.98;741.08;;;;;;;9.72;100.00;98755.80;1734341;83;21859;-79
2021/04/20 14:06:38;;;;;;;1999.90;900.00;;;;;;;9.72;100.00;98752.22;1734355;82;21276;-78
2021/04/20 14:09:47;;;;;;;1726.35;914.17;;;;;;;9.70;100.00;98755.17;1734758;82;21293;-78
2021/04/20 14:13:01;;;;;;;1407.68;886.03;;;;;;;9.69;100.00;98747.17;1713369;83;21311;-78
2021/04/20 14:16:11;;;;;;;1653.50;861.43;;;;;;;9.69;100.00;98754.86;1734823;83;21273;-78
2021/04/20 14:19:17;;;;;;;908.95;696.77;;;;;;;9.68;100.00;98759.98;1734924;83;21879;-78
2021/04/20 14:22:22;;;;;;;1450.28;726.40;;;;;;;9.68;100.00;98763.24;1734689;83;21850;-78
2021/04/20 14:25:26;;;;;;;846.55;662.42;;;;;;;9.66;100.00;98763.46;1712878;83;21272;-78
2021/04/20 14:28:39;;;;;;;654.87;564.15;;;;;;;9.67;100.00;98758.31;1733647;83;21320;-78
2021/04/20 14:31:44;;;;;;;1520.40;753.20;;;;;;;9.69;100.00;98765.78;1734733;83;21328;-78
2021/04/20 14:34:53;;;;;;;891.40;618.90;;;;;;;9.71;100.00;98764.20;1734734;83;21768;-78
2021/04/20 14:38:01;;;;;;;1999.90;766.98;;;;;;;9.71;100.00;98760.11;1713147;82;21841;-79